createdAt,value
2019-05-12T00:00:08.068Z,4.5832
2019-05-12T00:00:22.948Z,3.1723
2019-05-12T00:00:28.729Z,3.3081
2019-05-12T00:00:39.273Z,3.6721
2019-05-12T00:00:48.373Z,5.1889
2019-05-12T00:00:58.603Z,5.2988
2019-05-12T00:01:09.390Z,4.5882
2019-05-12T00:01:18.852Z,4.2354
2019-05-12T00:01:28.576Z,3.9711
2019-05-12T00:01:38.992Z,4.3906
2019-05-12T00:01:48.100Z,4.2928
2019-05-12T00:01:58.710Z,4.4195
2019-05-12T00:02:07.709Z,4.1333
2019-05-12T00:02:18.381Z,5.0644
2019-05-12T00:02:28.751Z,4.9580
2019-05-12T00:02:39.671Z,5.0004
2019-05-12T00:02:48.650Z,4.8404
2019-05-12T00:02:59.310Z,3.5778
2019-05-12T00:03:08.484Z,4.4199
2019-05-12T00:03:19.417Z,5.2314
2019-05-12T00:03:27.719Z,5.2995
2019-05-12T00:03:39.297Z,4.6407
2019-05-12T00:03:49.399Z,4.0355
2019-05-12T00:03:58.387Z,5.3247
2019-05-12T00:04:09.399Z,5.1519
2019-05-12T00:04:18.938Z,4.4004
2019-05-12T00:04:29.378Z,4.2426
2019-05-12T00:04:38.485Z,4.5833
2019-05-12T00:04:48.920Z,4.9397
2019-05-12T00:04:58.251Z,4.2401
2019-05-12T00:05:08.872Z,4.3797
2019-05-12T00:05:18.471Z,4.1505
2019-05-12T00:05:28.382Z,4.1853
2019-05-12T00:05:38.322Z,4.7783
2019-05-12T00:05:48.400Z,4.9664
2019-05-12T00:05:57.846Z,4.9756
2019-05-12T00:06:08.742Z,6.0009
2019-05-12T00:06:17.771Z,6.0682
2019-05-12T00:06:30.401Z,4.5272
2019-05-12T00:06:38.752Z,4.5976
2019-05-12T00:06:48.398Z,4.1762
2019-05-12T00:06:58.524Z,3.9184
2019-05-12T00:07:08.812Z,3.5743
2019-05-12T00:07:18.160Z,3.1694
2019-05-12T00:07:28.652Z,3.3444
2019-05-12T00:07:38.495Z,3.8535
2019-05-12T00:07:48.930Z,4.4289
2019-05-12T00:07:58.949Z,4.6468
2019-05-12T00:08:09.954Z,4.7214
2019-05-12T00:08:18.875Z,4.1022
2019-05-12T00:08:27.868Z,4.6990
2019-05-12T00:08:39.396Z,5.5218
2019-05-12T00:08:49.353Z,5.1961
2019-05-12T00:09:00.954Z,5.2218
2019-05-12T00:09:08.562Z,4.8305
2019-05-12T00:09:21.389Z,3.7589
2019-05-12T00:09:28.247Z,3.6543
2019-05-12T00:09:40.354Z,4.3795
2019-05-12T00:09:48.031Z,4.4712
2019-05-12T00:09:58.401Z,4.4796
2019-05-12T00:10:08.621Z,4.2425
2019-05-12T00:10:18.396Z,3.7619
2019-05-12T00:10:28.273Z,4.0077
2019-05-12T00:10:38.864Z,4.2333
2019-05-12T00:10:47.845Z,3.8627
2019-05-12T00:10:58.401Z,4.3280
2019-05-12T00:11:08.968Z,4.8316
2019-05-12T00:11:18.390Z,6.0417
2019-05-12T00:11:28.792Z,7.1288
2019-05-12T00:11:38.397Z,7.0591
2019-05-12T00:11:48.472Z,5.7872
2019-05-12T00:11:59.036Z,5.5748
2019-05-12T00:12:08.265Z,5.8987
2019-05-12T00:12:18.551Z,5.5246
2019-05-12T00:12:27.849Z,5.5459
2019-05-12T00:12:38.682Z,4.9773
2019-05-12T00:12:48.347Z,4.8130
2019-05-12T00:12:58.328Z,5.8306
2019-05-12T00:13:08.307Z,6.1044
2019-05-12T00:13:19.043Z,4.4208
2019-05-12T00:13:27.914Z,4.1392
2019-05-12T00:13:38.642Z,4.8504
2019-05-12T00:13:48.561Z,5.0401
2019-05-12T00:13:58.575Z,5.9984
2019-05-12T00:14:08.616Z,5.9414
2019-05-12T00:14:18.386Z,5.8168
2019-05-12T00:14:28.424Z,6.0629
2019-05-12T00:14:38.129Z,5.8108
2019-05-12T00:14:50.391Z,4.8780
2019-05-12T00:14:58.981Z,4.6879
2019-05-12T00:15:09.396Z,4.6334
2019-05-12T00:15:19.165Z,4.5969
2019-05-12T00:15:30.916Z,5.0934
2019-05-12T00:15:38.452Z,5.3232
2019-05-12T00:15:50.211Z,4.5874
2019-05-12T00:15:58.360Z,3.4753
2019-05-12T00:16:08.889Z,3.2827
2019-05-12T00:16:17.698Z,3.5841
2019-05-12T00:16:28.531Z,3.8609
2019-05-12T00:16:38.351Z,4.4632
2019-05-12T00:16:49.080Z,4.5612
2019-05-12T00:16:58.055Z,4.5054
2019-05-12T00:17:08.391Z,5.9694
2019-05-12T00:17:18.792Z,7.9013
2019-05-12T00:17:28.512Z,7.8382
2019-05-12T00:17:38.755Z,6.1044
2019-05-12T00:17:48.674Z,5.4654
2019-05-12T00:17:58.703Z,4.7196
2019-05-12T00:18:09.119Z,4.3198
2019-05-12T00:18:19.031Z,4.3848
2019-05-12T00:18:28.594Z,4.3362
2019-05-12T00:18:37.870Z,4.1132
2019-05-12T00:18:48.295Z,4.2676
2019-05-12T00:18:58.570Z,5.3478
2019-05-12T00:19:09.237Z,4.7180
2019-05-12T00:19:18.837Z,5.0234
2019-05-12T00:19:28.687Z,5.2036
2019-05-12T00:19:37.821Z,5.3853
2019-05-12T00:19:48.405Z,4.6666
2019-05-12T00:19:58.459Z,4.3344
2019-05-12T00:20:08.718Z,4.5514
2019-05-12T00:20:18.070Z,4.8230
2019-05-12T00:20:28.616Z,4.7549
2019-05-12T00:20:39.404Z,4.3676
2019-05-12T00:20:48.404Z,5.3977
2019-05-12T00:20:59.375Z,5.5726
2019-05-12T00:21:08.818Z,4.9725
2019-05-12T00:21:19.397Z,5.3536
2019-05-12T00:21:28.308Z,5.2942
2019-05-12T00:21:39.903Z,6.2065
2019-05-12T00:21:48.294Z,6.7649
2019-05-12T00:21:58.859Z,6.3807
2019-05-12T00:22:07.722Z,6.6318
2019-05-12T00:22:18.383Z,7.9332
2019-05-12T00:22:28.681Z,7.3658
2019-05-12T00:22:38.398Z,6.0847
2019-05-12T00:22:48.670Z,5.0631
2019-05-12T00:22:58.418Z,4.4547
2019-05-12T00:23:23.137Z,4.1593
2019-05-12T00:23:26.660Z,5.3320
2019-05-12T00:23:30.427Z,5.9169
2019-05-12T00:23:38.380Z,5.9401
2019-05-12T00:23:47.730Z,6.5243
2019-05-12T00:23:58.226Z,5.7383
2019-05-12T00:24:09.055Z,7.3748
2019-05-12T00:24:18.796Z,7.0103
2019-05-12T00:24:28.012Z,5.7296
2019-05-12T00:24:38.420Z,4.9845
2019-05-12T00:24:47.897Z,4.8049
2019-05-12T00:24:58.429Z,4.8916
2019-05-12T00:25:08.789Z,5.2080
2019-05-12T00:25:18.525Z,5.1035
2019-05-12T00:25:28.452Z,5.3038
2019-05-12T00:25:38.871Z,4.9354
2019-05-12T00:25:48.002Z,4.7820
2019-05-12T00:25:58.732Z,4.3311
2019-05-12T00:26:08.363Z,4.5361
2019-05-12T00:26:18.708Z,3.7959
2019-05-12T00:26:30.175Z,4.5976
2019-05-12T00:26:38.402Z,4.6949
2019-05-12T00:26:49.388Z,4.7220
2019-05-12T00:27:02.128Z,5.1393
2019-05-12T00:27:09.405Z,5.0218
2019-05-12T00:27:19.056Z,5.2228
2019-05-12T00:27:28.507Z,5.8237
2019-05-12T00:27:38.748Z,5.4289
2019-05-12T00:27:48.873Z,5.6202
2019-05-12T00:27:58.598Z,5.3197
2019-05-12T00:28:08.418Z,4.6814
2019-05-12T00:28:17.909Z,5.2498
2019-05-12T00:28:28.549Z,5.7772
2019-05-12T00:28:37.674Z,6.3689
2019-05-12T00:28:48.947Z,5.4314
2019-05-12T00:28:58.793Z,5.5367
2019-05-12T00:29:08.415Z,5.9144
2019-05-12T00:29:18.485Z,5.2960
2019-05-12T00:29:28.795Z,5.2241
2019-05-12T00:29:37.825Z,5.2712
2019-05-12T00:29:50.943Z,5.0543
2019-05-12T00:29:57.840Z,5.3096
2019-05-12T00:30:09.909Z,5.9481
2019-05-12T00:30:18.526Z,5.5818
2019-05-12T00:30:27.853Z,5.1759
2019-05-12T00:30:38.792Z,5.1872
2019-05-12T00:30:48.784Z,4.8083
2019-05-12T00:30:58.084Z,6.1445
2019-05-12T00:31:08.481Z,5.8196
2019-05-12T00:31:18.834Z,5.6859
2019-05-12T00:31:28.071Z,5.2692
2019-05-12T00:31:38.295Z,5.1692
2019-05-12T00:31:47.894Z,5.5650
2019-05-12T00:31:58.432Z,5.8430
2019-05-12T00:32:08.624Z,4.8090
2019-05-12T00:32:17.965Z,4.6709
2019-05-12T00:32:28.384Z,3.9613
2019-05-12T00:32:39.399Z,5.8441
2019-05-12T00:32:48.404Z,5.9594
2019-05-12T00:33:00.191Z,5.1812
2019-05-12T00:33:09.245Z,4.9008
2019-05-12T00:33:19.387Z,4.8761
2019-05-12T00:33:28.226Z,5.1805
2019-05-12T00:33:39.383Z,5.2116
2019-05-12T00:33:48.043Z,5.4319
2019-05-12T00:33:58.775Z,5.1511
2019-05-12T00:34:07.797Z,5.1528
2019-05-12T00:34:18.611Z,5.0443
2019-05-12T00:34:28.931Z,5.2789
2019-05-12T00:34:38.588Z,5.9395
2019-05-12T00:34:48.068Z,5.4891
2019-05-12T00:34:58.567Z,4.6056
2019-05-12T00:35:08.045Z,4.9655
2019-05-12T00:35:18.416Z,5.4372
2019-05-12T00:35:28.494Z,5.2201
2019-05-12T00:35:38.406Z,5.0878
2019-05-12T00:35:48.329Z,4.5012
2019-05-12T00:35:58.726Z,5.2909
2019-05-12T00:36:07.998Z,5.3057
2019-05-12T00:36:18.627Z,5.9575
2019-05-12T00:36:29.218Z,5.7576
2019-05-12T00:36:39.594Z,5.3410
2019-05-12T00:36:48.503Z,6.0385
2019-05-12T00:36:58.384Z,5.8479
2019-05-12T00:37:09.374Z,5.7551
2019-05-12T00:37:18.666Z,5.9960
2019-05-12T00:37:28.875Z,5.3328
2019-05-12T00:37:38.136Z,5.4282
2019-05-12T00:37:48.622Z,5.4181
2019-05-12T00:37:58.403Z,5.7391
2019-05-12T00:38:08.979Z,5.8561
2019-05-12T00:38:18.394Z,6.5796
2019-05-12T00:38:29.376Z,7.0382
2019-05-12T00:38:39.377Z,6.3391
2019-05-12T00:38:49.391Z,4.8112
2019-05-12T00:38:57.996Z,4.9587
2019-05-12T00:39:10.384Z,5.2068
2019-05-12T00:39:19.072Z,4.3081
2019-05-12T00:39:28.410Z,5.0108
2019-05-12T00:39:38.266Z,5.2473
2019-05-12T00:39:48.391Z,4.3500
2019-05-12T00:39:58.271Z,5.6709
2019-05-12T00:40:08.969Z,6.0060
2019-05-12T00:40:19.116Z,6.3667
2019-05-12T00:40:28.399Z,6.1010
2019-05-12T00:40:39.113Z,5.8254
2019-05-12T00:40:48.397Z,5.2177
2019-05-12T00:40:58.334Z,4.3729
2019-05-12T00:41:08.870Z,5.1561
2019-05-12T00:41:18.148Z,5.4540
2019-05-12T00:41:28.506Z,4.6283
2019-05-12T00:41:38.939Z,4.3542
2019-05-12T00:41:48.173Z,4.1030
2019-05-12T00:41:59.400Z,4.4474
2019-05-12T00:42:08.392Z,4.1238
2019-05-12T00:42:20.903Z,4.4056
2019-05-12T00:42:28.814Z,4.6101
2019-05-12T00:42:38.145Z,5.3100
2019-05-12T00:42:49.309Z,4.8411
2019-05-12T00:42:59.428Z,5.1396
2019-05-12T00:43:08.887Z,4.3302
2019-05-12T00:43:19.389Z,4.2545
2019-05-12T00:43:28.129Z,4.5547
2019-05-12T00:43:42.958Z,5.6472
2019-05-12T00:43:48.726Z,5.9481
2019-05-12T00:43:58.393Z,6.3621
2019-05-12T00:44:08.826Z,5.9246
2019-05-12T00:44:18.351Z,5.1660
2019-05-12T00:44:28.463Z,4.8482
2019-05-12T00:44:39.072Z,4.5999
2019-05-12T00:44:47.895Z,4.4619
2019-05-12T00:44:58.641Z,5.2073
2019-05-12T00:45:08.063Z,5.0579
2019-05-12T00:45:18.398Z,4.4058
2019-05-12T00:45:29.207Z,4.2049
2019-05-12T00:45:38.787Z,3.8687
2019-05-12T00:45:48.202Z,4.4068
2019-05-12T00:45:58.777Z,4.0571
2019-05-12T00:46:07.918Z,3.4607
2019-05-12T00:46:18.402Z,4.2620
2019-05-12T00:46:28.887Z,4.3427
2019-05-12T00:46:39.870Z,4.4992
2019-05-12T00:46:49.419Z,4.6002
2019-05-12T00:46:58.384Z,5.1197
2019-05-12T00:47:08.541Z,4.9468
2019-05-12T00:47:18.771Z,4.7818
2019-05-12T00:47:28.043Z,5.0020
2019-05-12T00:47:39.020Z,4.7589
2019-05-12T00:47:48.108Z,5.0570
2019-05-12T00:47:59.357Z,4.5975
2019-05-12T00:48:09.726Z,5.0641
2019-05-12T00:48:18.391Z,5.4648
2019-05-12T00:48:30.298Z,5.1582
2019-05-12T00:48:38.394Z,4.1677
2019-05-12T00:48:49.415Z,3.4720
2019-05-12T00:48:58.510Z,3.7557
2019-05-12T00:49:10.381Z,4.0895
2019-05-12T00:49:18.672Z,4.5575
2019-05-12T00:49:29.076Z,5.3197
2019-05-12T00:49:37.883Z,5.8337
2019-05-12T00:49:49.528Z,4.5992
2019-05-12T00:49:58.343Z,3.7017
2019-05-12T00:50:08.391Z,4.3056
2019-05-12T00:50:18.415Z,5.0321
2019-05-12T00:50:30.912Z,3.8351
2019-05-12T00:50:38.204Z,3.9483
2019-05-12T00:50:48.696Z,4.1474
2019-05-12T00:50:58.377Z,4.1087
2019-05-12T00:51:08.417Z,4.9310
2019-05-12T00:51:18.110Z,5.6427
2019-05-12T00:51:28.983Z,4.7055
2019-05-12T00:51:38.417Z,4.5587
2019-05-12T00:51:48.598Z,4.7071
2019-05-12T00:51:58.705Z,4.0584
2019-05-12T00:52:08.434Z,3.6845
2019-05-12T00:52:18.679Z,4.4084
2019-05-12T00:52:28.149Z,4.0086
2019-05-12T00:52:38.745Z,4.1459
2019-05-12T00:52:49.640Z,4.0624
2019-05-12T00:52:58.018Z,4.5452
2019-05-12T00:53:09.674Z,4.0560
2019-05-12T00:53:20.347Z,4.4770
2019-05-12T00:53:37.115Z,5.3707
2019-05-12T00:53:43.232Z,6.5377
2019-05-12T00:53:47.945Z,6.3669
2019-05-12T00:54:00.354Z,6.1522
2019-05-12T00:54:09.913Z,5.5251
2019-05-12T00:54:18.400Z,4.7200
2019-05-12T00:54:28.448Z,4.9097
2019-05-12T00:54:38.399Z,4.4550
2019-05-12T00:54:48.319Z,4.6679
2019-05-12T00:54:58.696Z,4.7275
2019-05-12T00:55:08.106Z,4.3464
2019-05-12T00:55:18.527Z,4.8425
2019-05-12T00:55:28.999Z,4.7688
2019-05-12T00:55:38.589Z,4.0049
2019-05-12T00:55:47.726Z,3.7199
2019-05-12T00:55:58.389Z,3.5319
2019-05-12T00:56:09.402Z,4.1435
2019-05-12T00:56:18.379Z,4.4560
2019-05-12T00:56:28.384Z,5.0324
2019-05-12T00:56:39.143Z,4.7347
2019-05-12T00:56:48.180Z,3.9919
2019-05-12T00:56:58.555Z,3.5487
2019-05-12T00:57:07.835Z,3.4628
2019-05-12T00:57:18.383Z,4.1692
2019-05-12T00:57:28.662Z,4.1868
2019-05-12T00:57:38.239Z,4.1180
2019-05-12T00:57:50.939Z,3.9431
2019-05-12T00:57:58.349Z,4.2045
2019-05-12T00:58:08.335Z,4.3215
2019-05-12T00:58:19.816Z,4.3689
2019-05-12T00:58:28.270Z,5.7909
2019-05-12T00:58:38.409Z,6.2825
2019-05-12T00:58:48.750Z,5.4215
2019-05-12T00:58:58.386Z,4.0834
2019-05-12T00:59:10.446Z,2.8287
2019-05-12T00:59:19.083Z,2.9404
2019-05-12T00:59:30.313Z,3.6341
2019-05-12T00:59:38.259Z,4.4791
2019-05-12T00:59:49.387Z,5.0005
2019-05-12T00:59:58.219Z,5.2616
2019-05-12T01:00:09.371Z,3.8933
2019-05-12T01:00:17.843Z,4.1641
2019-05-12T01:00:29.661Z,3.1778
2019-05-12T01:00:40.572Z,2.9063
2019-05-12T01:00:48.414Z,2.9755
2019-05-12T01:00:59.624Z,3.6725
2019-05-12T01:01:08.403Z,4.3131
2019-05-12T01:01:18.376Z,4.1526
2019-05-12T01:01:28.720Z,4.1927
2019-05-12T01:01:38.102Z,4.3984
2019-05-12T01:01:48.409Z,4.4294
2019-05-12T01:01:58.606Z,4.3908
2019-05-12T01:02:08.385Z,4.6968
2019-05-12T01:02:18.312Z,5.3652
2019-05-12T01:02:28.768Z,5.8589
2019-05-12T01:02:38.025Z,4.9272
2019-05-12T01:02:48.642Z,5.0570
2019-05-12T01:02:58.290Z,4.5623
2019-05-12T01:03:08.787Z,4.0187
2019-05-12T01:03:18.830Z,3.4637
2019-05-12T01:03:28.409Z,3.3584
2019-05-12T01:03:38.215Z,3.6825
2019-05-12T01:03:48.465Z,3.7739
2019-05-12T01:03:59.406Z,3.9157
2019-05-12T01:04:08.987Z,4.7569
2019-05-12T01:04:17.678Z,4.3698
2019-05-12T01:04:29.139Z,3.6972
2019-05-12T01:04:38.150Z,3.9183
2019-05-12T01:04:48.814Z,3.9075
2019-05-12T01:04:58.127Z,3.7758
2019-05-12T01:05:08.738Z,4.3299
2019-05-12T01:05:17.782Z,4.7451
2019-05-12T01:05:29.426Z,4.9920
2019-05-12T01:05:38.327Z,4.1844
2019-05-12T01:05:48.675Z,3.5780
2019-05-12T01:05:57.751Z,3.9655
2019-05-12T01:06:08.533Z,4.9463
2019-05-12T01:06:20.402Z,4.3989
2019-05-12T01:06:28.458Z,4.4278
2019-05-12T01:06:39.385Z,4.4760
2019-05-12T01:06:51.911Z,4.2274
2019-05-12T01:07:00.371Z,4.3086
2019-05-12T01:07:08.673Z,4.2201
2019-05-12T01:07:20.302Z,3.7380
2019-05-12T01:07:27.828Z,3.4041
2019-05-12T01:07:38.411Z,3.5221
2019-05-12T01:07:48.189Z,3.6978
2019-05-12T01:07:58.625Z,3.5602
2019-05-12T01:08:08.886Z,4.5120
2019-05-12T01:08:18.812Z,4.8115
2019-05-12T01:08:28.031Z,3.9745
2019-05-12T01:08:38.477Z,3.6108
2019-05-12T01:08:48.346Z,3.6294
2019-05-12T01:08:58.402Z,3.9349
2019-05-12T01:09:08.778Z,3.7885
2019-05-12T01:09:18.387Z,4.0655
2019-05-12T01:09:28.169Z,4.7116
2019-05-12T01:09:38.614Z,4.9603
2019-05-12T01:09:49.130Z,5.1583
2019-05-12T01:10:00.905Z,4.8112
2019-05-12T01:10:08.735Z,5.0714
2019-05-12T01:10:18.384Z,4.0949
2019-05-12T01:10:28.627Z,3.1072
2019-05-12T01:10:39.142Z,3.0708
2019-05-12T01:10:47.880Z,3.4671
2019-05-12T01:10:58.321Z,3.5729
2019-05-12T01:11:08.791Z,3.6905
2019-05-12T01:11:18.404Z,4.6604
2019-05-12T01:11:28.595Z,4.1293
2019-05-12T01:11:39.579Z,4.0611
2019-05-12T01:11:48.636Z,4.0327
2019-05-12T01:11:58.908Z,3.8990
2019-05-12T01:12:09.383Z,4.7890
2019-05-12T01:12:18.410Z,5.0512
2019-05-12T01:12:30.270Z,3.9121
2019-05-12T01:12:38.453Z,4.2169
2019-05-12T01:12:49.427Z,4.3234
2019-05-12T01:12:58.105Z,4.1902
2019-05-12T01:13:10.299Z,4.3760
2019-05-12T01:13:18.671Z,4.0316
2019-05-12T01:13:30.381Z,3.6819
2019-05-12T01:13:38.239Z,3.5294
2019-05-12T01:13:48.624Z,3.4974
2019-05-12T01:13:58.276Z,3.3790
2019-05-12T01:14:08.771Z,4.0289
2019-05-12T01:14:18.678Z,4.4293
2019-05-12T01:14:28.390Z,5.2920
2019-05-12T01:14:38.343Z,4.9427
2019-05-12T01:14:48.388Z,4.8368
2019-05-12T01:14:58.541Z,4.3728
2019-05-12T01:15:10.870Z,3.5387
2019-05-12T01:15:17.782Z,3.4988
2019-05-12T01:15:28.773Z,4.1742
2019-05-12T01:15:37.952Z,5.3941
2019-05-12T01:15:48.389Z,5.3448
2019-05-12T01:15:58.683Z,4.3870
2019-05-12T01:16:08.375Z,3.8242
2019-05-12T01:16:18.422Z,3.5096
2019-05-12T01:16:28.975Z,4.2227
2019-05-12T01:16:38.507Z,4.4420
2019-05-12T01:16:48.679Z,4.3618
2019-05-12T01:16:57.876Z,4.9438
2019-05-12T01:17:08.548Z,4.3742
2019-05-12T01:17:17.827Z,3.4209
2019-05-12T01:17:28.281Z,2.7554
2019-05-12T01:17:40.390Z,3.3895
2019-05-12T01:17:49.290Z,4.1097
2019-05-12T01:17:58.542Z,4.3859
2019-05-12T01:18:11.969Z,4.7630
2019-05-12T01:18:19.398Z,5.3127
2019-05-12T01:18:28.409Z,4.8400
2019-05-12T01:18:39.389Z,4.5764
2019-05-12T01:18:48.002Z,4.3107
2019-05-12T01:18:59.383Z,4.2065
2019-05-12T01:19:07.930Z,4.5122
2019-05-12T01:19:19.408Z,4.3193
2019-05-12T01:19:28.785Z,3.5219
2019-05-12T01:19:40.499Z,3.4708
2019-05-12T01:19:48.610Z,3.5078
2019-05-12T01:19:58.535Z,3.3391
2019-05-12T01:20:08.888Z,3.1903
2019-05-12T01:20:18.405Z,3.3716
2019-05-12T01:20:28.445Z,4.8702
2019-05-12T01:20:39.152Z,4.8837
2019-05-12T01:20:47.943Z,4.3164
2019-05-12T01:20:58.482Z,3.9913
2019-05-12T01:21:07.847Z,3.9318
2019-05-12T01:21:20.936Z,3.7508
2019-05-12T01:21:28.758Z,3.5108
2019-05-12T01:21:38.388Z,3.8108
2019-05-12T01:21:48.122Z,4.6632
2019-05-12T01:21:58.812Z,4.6090
2019-05-12T01:22:08.080Z,4.8074
2019-05-12T01:22:18.742Z,4.0911
2019-05-12T01:22:27.779Z,4.2471
2019-05-12T01:22:38.518Z,4.7272
2019-05-12T01:22:50.388Z,4.3515
2019-05-12T01:22:58.400Z,3.5126
2019-05-12T01:23:08.518Z,5.1396
2019-05-12T01:23:19.973Z,5.3067
2019-05-12T01:23:28.132Z,4.8378
2019-05-12T01:23:53.390Z,4.0472
2019-05-12T01:23:56.437Z,3.6789
2019-05-12T01:24:03.294Z,3.8973
2019-05-12T01:24:12.882Z,4.5021
2019-05-12T01:24:18.878Z,4.7294
2019-05-12T01:24:28.163Z,4.2495
2019-05-12T01:24:38.478Z,3.5886
2019-05-12T01:24:48.468Z,4.4388
2019-05-12T01:24:58.409Z,4.5438
2019-05-12T01:25:08.626Z,3.7119
2019-05-12T01:25:18.421Z,3.8281
2019-05-12T01:25:29.407Z,3.5232
2019-05-12T01:25:39.728Z,3.4949
2019-05-12T01:25:50.829Z,3.4996
2019-05-12T01:25:58.569Z,3.3398
2019-05-12T01:26:09.394Z,3.2016
2019-05-12T01:26:17.943Z,3.2962
2019-05-12T01:26:30.517Z,2.7694
2019-05-12T01:26:38.807Z,3.2728
2019-05-12T01:26:50.303Z,3.6231
2019-05-12T01:26:58.231Z,3.1735
2019-05-12T01:27:12.942Z,3.4820
2019-05-12T01:27:18.089Z,3.6522
2019-05-12T01:27:28.920Z,4.4211
2019-05-12T01:27:38.070Z,4.3553
2019-05-12T01:27:48.415Z,3.5150
2019-05-12T01:27:58.882Z,3.9423
2019-05-12T01:28:08.468Z,3.6475
2019-05-12T01:28:18.372Z,2.8694
2019-05-12T01:28:28.387Z,2.5438
2019-05-12T01:28:38.261Z,2.4616
2019-05-12T01:28:48.912Z,4.2045
2019-05-12T01:28:58.067Z,4.4892
2019-05-12T01:29:08.637Z,4.7623
2019-05-12T01:29:17.758Z,4.5837
2019-05-12T01:29:28.390Z,3.7106
2019-05-12T01:29:38.545Z,3.2770
2019-05-12T01:29:48.395Z,4.1302
2019-05-12T01:29:58.088Z,4.5528
2019-05-12T01:30:08.902Z,4.9241
2019-05-12T01:30:18.063Z,5.0056
2019-05-12T01:30:28.712Z,4.7133
2019-05-12T01:30:39.105Z,4.5911
2019-05-12T01:30:48.054Z,3.6790
2019-05-12T01:30:58.183Z,4.0223
2019-05-12T01:31:08.600Z,3.3072
2019-05-12T01:31:18.811Z,2.8206
2019-05-12T01:31:28.609Z,3.2572
2019-05-12T01:31:38.381Z,3.5060
2019-05-12T01:31:48.611Z,3.0703
2019-05-12T01:31:58.574Z,3.3967
2019-05-12T01:32:09.343Z,4.9561
2019-05-12T01:32:18.279Z,6.7929
2019-05-12T01:32:31.963Z,5.0105
2019-05-12T01:32:39.402Z,5.2854
2019-05-12T01:32:49.269Z,4.9227
2019-05-12T01:32:58.320Z,4.5507
2019-05-12T01:33:08.575Z,4.8301
2019-05-12T01:33:19.391Z,3.9819
2019-05-12T01:33:27.751Z,3.7365
2019-05-12T01:33:39.384Z,3.4107
2019-05-12T01:33:48.596Z,3.2950
2019-05-12T01:33:58.601Z,3.6939
2019-05-12T01:34:08.113Z,4.0410
2019-05-12T01:34:18.425Z,4.0669
2019-05-12T01:34:27.879Z,4.0705
2019-05-12T01:34:38.396Z,4.2089
2019-05-12T01:34:48.646Z,3.7297
2019-05-12T01:34:58.382Z,5.3656
2019-05-12T01:35:08.060Z,5.0081
2019-05-12T01:35:18.570Z,5.0225
2019-05-12T01:35:28.181Z,4.6360
2019-05-12T01:35:38.974Z,4.1922
2019-05-12T01:35:48.253Z,4.5533
2019-05-12T01:35:58.769Z,4.1633
2019-05-12T01:36:07.940Z,3.4359
2019-05-12T01:36:18.395Z,3.9127
2019-05-12T01:36:28.698Z,3.3340
2019-05-12T01:36:38.411Z,2.6084
2019-05-12T01:36:48.446Z,3.1742
2019-05-12T01:36:58.549Z,3.5568
2019-05-12T01:37:09.882Z,3.9662
2019-05-12T01:37:18.531Z,5.2823
2019-05-12T01:37:28.824Z,5.0308
2019-05-12T01:37:38.383Z,4.8484
2019-05-12T01:37:48.427Z,5.6783
2019-05-12T01:38:01.457Z,5.5351
2019-05-12T01:38:07.968Z,4.8977
2019-05-12T01:38:18.428Z,5.7030
2019-05-12T01:38:28.719Z,5.4421
2019-05-12T01:38:38.383Z,4.7195
2019-05-12T01:38:48.395Z,4.4272
2019-05-12T01:39:01.579Z,3.3160
2019-05-12T01:39:09.387Z,2.7014
2019-05-12T01:39:19.304Z,3.2089
2019-05-12T01:39:28.964Z,4.2552
2019-05-12T01:39:38.415Z,4.3261
2019-05-12T01:39:49.232Z,4.8502
2019-05-12T01:39:59.893Z,4.9956
2019-05-12T01:40:10.642Z,4.8353
2019-05-12T01:40:19.085Z,4.6527
2019-05-12T01:40:30.462Z,3.9219
2019-05-12T01:40:39.435Z,3.9716
2019-05-12T01:40:48.384Z,3.9578
2019-05-12T01:40:58.411Z,3.5365
2019-05-12T01:41:08.820Z,3.9344
2019-05-12T01:41:17.993Z,3.5446
2019-05-12T01:41:28.759Z,3.3603
2019-05-12T01:41:38.910Z,3.9116
2019-05-12T01:41:48.401Z,4.2917
2019-05-12T01:41:58.715Z,4.3473
2019-05-12T01:42:09.128Z,4.6527
2019-05-12T01:42:18.033Z,4.0486
2019-05-12T01:42:28.800Z,3.0540
2019-05-12T01:42:38.254Z,3.8142
2019-05-12T01:42:48.481Z,4.3037
2019-05-12T01:42:58.146Z,4.3457
2019-05-12T01:43:08.543Z,4.5115
2019-05-12T01:43:18.699Z,4.6202
2019-05-12T01:43:28.398Z,3.9639
2019-05-12T01:43:38.224Z,3.2225
2019-05-12T01:43:48.807Z,3.1662
2019-05-12T01:43:58.464Z,4.0991
2019-05-12T01:44:08.789Z,4.0040
2019-05-12T01:44:18.365Z,3.2845
2019-05-12T01:44:28.747Z,3.5602
2019-05-12T01:44:38.318Z,4.0501
2019-05-12T01:44:49.678Z,3.9661
2019-05-12T01:44:59.928Z,3.5939
2019-05-12T01:45:09.241Z,3.1533
2019-05-12T01:45:20.308Z,2.9343
2019-05-12T01:45:29.023Z,3.0159
2019-05-12T01:45:39.410Z,3.5721
2019-05-12T01:45:48.298Z,3.3493
2019-05-12T01:46:00.516Z,3.5850
2019-05-12T01:46:08.025Z,3.1633
2019-05-12T01:46:18.400Z,2.8104
2019-05-12T01:46:31.942Z,4.0938
2019-05-12T01:46:38.529Z,4.8586
2019-05-12T01:46:48.418Z,4.8432
2019-05-12T01:46:58.379Z,4.6681
2019-05-12T01:47:10.942Z,4.4163
2019-05-12T01:47:18.841Z,4.3321
2019-05-12T01:47:29.107Z,3.5620
2019-05-12T01:47:42.949Z,4.1947
2019-05-12T01:47:48.559Z,4.0133
2019-05-12T01:47:59.423Z,4.3833
2019-05-12T01:48:08.863Z,3.7642
2019-05-12T01:48:18.579Z,3.0128
2019-05-12T01:48:28.700Z,2.8530
2019-05-12T01:48:38.391Z,3.8032
2019-05-12T01:48:48.434Z,4.3095
2019-05-12T01:48:59.098Z,4.4103
2019-05-12T01:49:08.217Z,3.9056
2019-05-12T01:49:18.800Z,5.2429
2019-05-12T01:49:28.979Z,5.1317
2019-05-12T01:49:38.405Z,4.4099
2019-05-12T01:49:48.816Z,4.4725
2019-05-12T01:49:58.428Z,4.6195
2019-05-12T01:50:09.167Z,4.8726
2019-05-12T01:50:17.881Z,4.6372
2019-05-12T01:50:28.640Z,4.7973
2019-05-12T01:50:38.970Z,3.9196
2019-05-12T01:50:47.638Z,3.4280
2019-05-12T01:50:59.439Z,3.1324
2019-05-12T01:51:08.388Z,3.0327
2019-05-12T01:51:18.390Z,4.1689
2019-05-12T01:51:29.380Z,4.6469
2019-05-12T01:51:39.532Z,4.6028
2019-05-12T01:51:48.387Z,3.9966
2019-05-12T01:51:58.378Z,3.6120
2019-05-12T01:52:09.370Z,4.2571
2019-05-12T01:52:17.869Z,4.0422
2019-05-12T01:52:29.406Z,3.8560
2019-05-12T01:52:38.587Z,4.1760
2019-05-12T01:52:48.416Z,4.0535
2019-05-12T01:52:59.151Z,4.5926
2019-05-12T01:53:08.701Z,4.4263
2019-05-12T01:53:18.117Z,4.8054
2019-05-12T01:53:28.768Z,4.3966
2019-05-12T01:53:37.941Z,4.1270
2019-05-12T01:53:48.406Z,4.1371
2019-05-12T01:54:10.962Z,3.2617
2019-05-12T01:54:13.761Z,3.3862
2019-05-12T01:54:18.876Z,3.7269
2019-05-12T01:54:28.394Z,3.4214
2019-05-12T01:54:39.900Z,4.0290
2019-05-12T01:54:48.514Z,4.7150
2019-05-12T01:54:59.011Z,4.5277
2019-05-12T01:55:08.506Z,4.0418
2019-05-12T01:55:18.575Z,3.7205
2019-05-12T01:55:28.469Z,4.2174
2019-05-12T01:55:42.182Z,3.1596
2019-05-12T01:55:48.627Z,3.0218
2019-05-12T01:55:58.516Z,3.5337
2019-05-12T01:56:08.398Z,4.4574
2019-05-12T01:56:18.194Z,4.9562
2019-05-12T01:56:28.796Z,4.3153
2019-05-12T01:56:38.284Z,3.4678
2019-05-12T01:56:48.469Z,3.6064
2019-05-12T01:56:58.659Z,3.8065
2019-05-12T01:57:08.397Z,3.5454
2019-05-12T01:57:18.864Z,4.3797
2019-05-12T01:57:28.883Z,4.7743
2019-05-12T01:57:38.681Z,4.2385
2019-05-12T01:57:48.657Z,3.2610
2019-05-12T01:57:57.951Z,3.1911
2019-05-12T01:58:08.733Z,3.0430
2019-05-12T01:58:19.700Z,3.3644
2019-05-12T01:58:28.412Z,3.4614
2019-05-12T01:58:38.158Z,3.7967
2019-05-12T01:58:48.507Z,3.5131
2019-05-12T01:58:59.392Z,3.1207
2019-05-12T01:59:08.141Z,3.7723
2019-05-12T01:59:19.387Z,4.0509
2019-05-12T01:59:28.743Z,3.5841
2019-05-12T01:59:38.373Z,3.7345
2019-05-12T01:59:48.415Z,3.6193
2019-05-12T01:59:58.687Z,3.6268
2019-05-12T02:00:08.075Z,3.3885
2019-05-12T02:00:18.404Z,4.2763
2019-05-12T02:00:28.924Z,4.4620
2019-05-12T02:00:39.137Z,4.2593
2019-05-12T02:00:48.291Z,4.2026
2019-05-12T02:00:58.963Z,3.4672
2019-05-12T02:01:08.218Z,2.9757
2019-05-12T02:01:18.554Z,2.5870
2019-05-12T02:01:28.110Z,2.7158
2019-05-12T02:01:38.899Z,3.6055
2019-05-12T02:01:48.825Z,4.0694
2019-05-12T02:01:58.436Z,3.6522
2019-05-12T02:02:08.613Z,3.9184
2019-05-12T02:02:18.398Z,3.8691
2019-05-12T02:02:28.553Z,3.5561
2019-05-12T02:02:38.675Z,3.2690
2019-05-12T02:02:48.047Z,3.0209
2019-05-12T02:02:58.543Z,3.5857
2019-05-12T02:03:08.966Z,3.5244
2019-05-12T02:03:18.395Z,4.5336
2019-05-12T02:03:28.372Z,4.4283
2019-05-12T02:03:38.396Z,3.0679
2019-05-12T02:03:48.374Z,2.4314
2019-05-12T02:03:58.621Z,2.3642
2019-05-12T02:04:07.839Z,2.2103
2019-05-12T02:04:19.289Z,2.2690
2019-05-12T02:04:28.477Z,2.3599
2019-05-12T02:04:38.380Z,2.8835
2019-05-12T02:04:48.373Z,3.0650